KELN/ELN METAR and TAF weather

Enter ICAO airport designator
Station Type Date Time Source
KELN METAR 2021/03/07 08:53 UTC NOAA

KELN 070853Z AUTO 00000KT 10SM FEW110 M01/M05 A2994 RMK AO2 SLP149 T10111050 56004


Station Type Date Time Source
KELN Decoded METAR 2021/03/07 08:53 UTC NOAA

ELLENSBURG BOWERS FIELD, WA, United States (KELN) 47-02N 120-32W 519M
Mar 07, 2021 - 03:53 AM EST / 2021.03.07 0853 UTC
Wind: Calm:0
Visibility: 10 mile(s):0
Sky conditions: mostly clear
Temperature: 30.0 F (-1.1 C)
Dew Point: 23.0 F (-5.0 C)
Relative Humidity: 74%
Pressure (altimeter): 29.94 in. Hg (1013 hPa)
Pressure tendency: 0.01 inches (0.4 hPa) lower than three hours ago
ob: KELN 070853Z AUTO 00000KT 10SM FEW110 M01/M05 A2994 RMK AO2 SLP149 T10111050 56004
cycle: 9

Station Type Date Time Source
KELN TAF UTC NOAA

Error!

Example: see airport list